createdAt,value
2019-04-20T00:01:47.337Z,7.29
2019-04-20T00:04:19.434Z,7.27
2019-04-20T00:06:47.792Z,7.23
2019-04-20T00:09:17.130Z,7.23
2019-04-20T00:11:51.698Z,7.26
2019-04-20T00:14:19.304Z,7.22
2019-04-20T00:16:42.015Z,7.29
2019-04-20T00:19:10.548Z,7.39
2019-04-20T00:21:52.050Z,7.32
2019-04-20T00:24:22.935Z,7.20
2019-04-20T00:27:10.627Z,6.86
2019-04-20T00:29:32.202Z,6.84
2019-04-20T00:31:52.316Z,6.60
2019-04-20T00:34:18.229Z,6.47
2019-04-20T00:36:41.097Z,6.53
2019-04-20T00:39:11.114Z,6.65
2019-04-20T00:41:45.157Z,6.61
2019-04-20T00:44:13.033Z,6.19
2019-04-20T00:46:41.976Z,6.41
2019-04-20T00:49:21.661Z,6.36
2019-04-20T00:51:52.477Z,6.48
2019-04-20T00:54:02.549Z,6.56
2019-04-20T00:56:32.940Z,6.47
2019-04-20T00:59:13.098Z,6.52
2019-04-20T01:01:47.650Z,6.54
2019-04-20T01:04:30.071Z,6.56
2019-04-20T01:07:02.651Z,6.33
2019-04-20T01:09:24.592Z,6.61
2019-04-20T01:11:52.834Z,6.40
2019-04-20T01:14:30.227Z,6.42
2019-04-20T01:16:58.798Z,6.32
2019-04-20T01:19:21.572Z,6.02
2019-04-20T01:21:53.399Z,6.23
2019-04-20T01:24:24.808Z,6.10
2019-04-20T01:26:50.644Z,5.92
2019-04-20T01:29:26.067Z,6.17
2019-04-20T01:31:57.048Z,6.07
2019-04-20T01:34:26.558Z,6.13
2019-04-20T01:36:56.355Z,6.20
2019-04-20T01:39:20.599Z,6.13
2019-04-20T01:41:41.344Z,6.08
2019-04-20T01:44:09.163Z,5.81
2019-04-20T01:46:45.423Z,5.81
2019-04-20T01:49:15.093Z,5.87
2019-04-20T01:51:48.261Z,5.90
2019-04-20T01:54:21.267Z,5.79
2019-04-20T01:56:51.994Z,5.85
2019-04-20T01:59:34.731Z,5.84
2019-04-20T02:02:17.765Z,5.79
2019-04-20T02:05:06.053Z,5.87
2019-04-20T02:07:34.630Z,5.94
2019-04-20T02:09:59.882Z,6.07
2019-04-20T02:12:29.243Z,6.03
2019-04-20T02:14:58.968Z,5.98
2019-04-20T02:17:31.918Z,5.93
2019-04-20T02:20:10.459Z,5.99
2019-04-20T02:22:39.664Z,5.89
2019-04-20T02:24:50.934Z,5.93
2019-04-20T02:27:20.597Z,5.83
2019-04-20T02:30:13.361Z,5.91
2019-04-20T02:33:01.607Z,5.89
2019-04-20T02:40:54.000Z,5.96
2019-04-20T02:43:20.857Z,5.85
2019-04-20T02:48:08.091Z,5.97
2019-04-20T02:50:44.173Z,5.91
2019-04-20T02:53:20.546Z,5.87
2019-04-20T02:58:11.340Z,5.78
2019-04-20T03:00:35.442Z,5.77
2019-04-20T03:02:48.693Z,5.84
2019-04-20T03:05:22.985Z,5.89
2019-04-20T03:07:57.702Z,5.83
2019-04-20T03:10:25.016Z,5.78
2019-04-20T03:13:01.485Z,5.74
2019-04-20T03:15:31.440Z,5.77
2019-04-20T03:17:51.305Z,5.68
2019-04-20T03:20:23.058Z,5.66
2019-04-20T03:23:11.155Z,5.63
2019-04-20T03:25:45.074Z,5.41
2019-04-20T03:28:11.876Z,5.45
2019-04-20T03:31:38.012Z,5.33
2019-04-20T03:33:43.391Z,5.35
2019-04-20T03:36:09.331Z,5.35
2019-04-20T03:38:19.833Z,5.27
2019-04-20T03:40:45.362Z,5.16
2019-04-20T03:43:02.009Z,5.25
2019-04-20T03:45:39.211Z,5.34
2019-04-20T03:48:09.160Z,5.23
2019-04-20T03:50:46.621Z,5.18
2019-04-20T03:53:19.253Z,5.09
2019-04-20T03:56:05.152Z,5.12
2019-04-20T03:58:50.466Z,5.19
2019-04-20T04:02:12.095Z,5.13
2019-04-20T04:04:38.908Z,5.09
2019-04-20T04:06:51.463Z,5.01
2019-04-20T04:09:27.417Z,4.83
2019-04-20T04:11:56.060Z,4.75
2019-04-20T04:14:13.512Z,4.84
2019-04-20T04:16:45.679Z,4.95
2019-04-20T04:19:18.056Z,4.98
2019-04-20T04:21:53.798Z,5.08
2019-04-20T04:24:22.946Z,4.99
2019-04-20T04:26:57.153Z,4.98
2019-04-20T04:29:30.065Z,4.94
2019-04-20T04:32:05.515Z,5.01
2019-04-20T04:34:23.904Z,4.93
2019-04-20T04:36:53.938Z,4.82
2019-04-20T04:39:27.968Z,4.71
2019-04-20T04:42:01.268Z,5.00
2019-04-20T04:44:17.434Z,5.10
2019-04-20T04:46:33.861Z,5.09
2019-04-20T04:49:08.450Z,5.27
2019-04-20T04:51:40.321Z,5.39
2019-04-20T04:54:03.635Z,5.32
2019-04-20T04:56:27.448Z,5.24
2019-04-20T04:58:56.222Z,5.22
2019-04-20T05:01:28.468Z,5.15
2019-04-20T05:04:14.745Z,5.19
2019-04-20T05:06:33.002Z,5.11
2019-04-20T05:08:57.956Z,5.26
2019-04-20T05:11:21.977Z,5.29
2019-04-20T05:13:56.850Z,5.49
2019-04-20T05:16:42.141Z,5.73
2019-04-20T05:19:13.472Z,5.70
2019-04-20T05:21:57.430Z,5.86
2019-04-20T05:24:35.666Z,6.00
2019-04-20T05:27:30.079Z,6.64
2019-04-20T05:29:39.495Z,7.34
2019-04-20T05:35:11.145Z,8.28
2019-04-20T05:37:43.516Z,8.58
2019-04-20T05:40:05.904Z,8.58
2019-04-20T05:42:39.423Z,8.81
2019-04-20T05:45:01.943Z,9.11
2019-04-20T05:47:33.353Z,9.60
2019-04-20T05:49:58.734Z,10.04
2019-04-20T05:55:04.412Z,9.89
2019-04-20T05:57:34.914Z,9.94
2019-04-20T06:00:23.470Z,10.59
2019-04-20T06:02:33.175Z,10.37
2019-04-20T06:05:05.398Z,10.74
2019-04-20T06:07:29.694Z,11.40
2019-04-20T06:09:59.433Z,10.90
2019-04-20T06:12:28.559Z,10.78
2019-04-20T06:15:08.289Z,11.49
2019-04-20T06:18:05.148Z,11.31
2019-04-20T06:20:35.814Z,11.33
2019-04-20T06:23:11.954Z,11.86
2019-04-20T06:25:57.168Z,12.64
2019-04-20T06:28:10.522Z,12.62
2019-04-20T06:30:37.172Z,12.72
2019-04-20T06:34:05.579Z,12.96
2019-04-20T06:36:23.204Z,12.36
2019-04-20T06:38:57.441Z,12.66
2019-04-20T06:43:45.813Z,12.91
2019-04-20T06:46:10.045Z,12.78
2019-04-20T06:48:40.151Z,13.37
2019-04-20T06:51:16.220Z,13.41
2019-04-20T06:53:47.361Z,14.22
2019-04-20T06:56:24.681Z,14.58
2019-04-20T06:58:53.810Z,14.41
2019-04-20T07:01:17.126Z,14.59
2019-04-20T07:04:02.271Z,14.96
2019-04-20T07:06:30.798Z,15.57
2019-04-20T07:11:18.838Z,15.41
2019-04-20T07:13:30.949Z,15.21
2019-04-20T07:16:36.318Z,16.27
2019-04-20T07:19:09.156Z,17.07
2019-04-20T07:22:10.506Z,16.93
2019-04-20T07:24:30.595Z,15.35
2019-04-20T07:26:59.154Z,16.13
2019-04-20T07:29:31.881Z,16.50
2019-04-20T07:31:48.492Z,16.32
2019-04-20T07:34:21.452Z,16.47
2019-04-20T07:37:07.042Z,16.81
2019-04-20T07:39:21.625Z,17.28
2019-04-20T07:41:54.725Z,17.69
2019-04-20T07:44:21.576Z,18.22
2019-04-20T07:46:59.841Z,17.96
2019-04-20T07:49:16.321Z,17.67
2019-04-20T07:51:31.467Z,18.27
2019-04-20T07:54:23.295Z,18.18
2019-04-20T07:56:46.316Z,17.80
2019-04-20T07:58:59.664Z,17.74
2019-04-20T08:02:07.800Z,16.51
2019-04-20T08:04:33.905Z,18.18
2019-04-20T08:06:51.911Z,18.53
2019-04-20T08:09:26.129Z,17.92
2019-04-20T08:12:14.153Z,19.07
2019-04-20T08:14:39.916Z,19.53
2019-04-20T08:19:35.345Z,20.51
2019-04-20T08:22:10.780Z,21.63
2019-04-20T08:24:29.967Z,22.07
2019-04-20T08:26:50.602Z,22.09
2019-04-20T08:29:32.736Z,21.64
2019-04-20T08:32:17.861Z,23.62
2019-04-20T08:34:56.606Z,22.18
2019-04-20T08:37:14.538Z,21.59
2019-04-20T08:42:13.312Z,21.35
2019-04-20T08:47:18.282Z,21.64
2019-04-20T08:50:11.991Z,23.53
2019-04-20T08:52:55.560Z,24.88
2019-04-20T08:55:06.053Z,24.29
2019-04-20T08:57:15.755Z,22.61
2019-04-20T08:59:44.304Z,23.95
2019-04-20T09:02:14.261Z,24.37
2019-04-20T09:04:48.994Z,25.13
2019-04-20T09:07:17.901Z,26.83
2019-04-20T09:10:04.907Z,25.87
2019-04-20T09:12:26.845Z,26.36
2019-04-20T09:14:40.250Z,26.86
2019-04-20T09:17:32.578Z,25.82
2019-04-20T09:19:58.667Z,26.99
2019-04-20T09:22:46.954Z,25.40
2019-04-20T09:25:43.168Z,25.91
2019-04-20T09:27:40.870Z,27.90
2019-04-20T09:30:21.625Z,25.54
2019-04-20T09:32:56.628Z,26.84
2019-04-20T09:35:27.993Z,25.29
2019-04-20T09:38:00.220Z,27.73
2019-04-20T09:40:33.613Z,26.34
2019-04-20T09:42:53.415Z,27.57
2019-04-20T09:45:35.117Z,26.72
2019-04-20T09:47:55.322Z,26.81
2019-04-20T09:50:38.704Z,28.07
2019-04-20T09:53:05.929Z,29.41
2019-04-20T09:55:32.868Z,25.83
2019-04-20T09:58:01.081Z,25.58
2019-04-20T10:00:35.049Z,27.90
2019-04-20T10:02:48.355Z,26.85
2019-04-20T10:05:15.712Z,27.86
2019-04-20T10:07:48.371Z,28.56
2019-04-20T10:10:21.437Z,27.30
2019-04-20T10:12:41.894Z,27.40
2019-04-20T10:15:15.642Z,28.21
2019-04-20T10:17:38.646Z,30.75
2019-04-20T10:20:11.561Z,26.84
2019-04-20T10:22:36.385Z,28.77
2019-04-20T10:25:04.688Z,28.93
2019-04-20T10:27:32.750Z,29.59
2019-04-20T10:30:02.768Z,29.41
2019-04-20T10:32:34.235Z,27.20
2019-04-20T10:34:57.189Z,28.54
2019-04-20T10:37:29.347Z,27.71
2019-04-20T10:39:56.582Z,27.81
2019-04-20T10:42:28.180Z,27.71
2019-04-20T10:44:57.204Z,28.00
2019-04-20T10:47:25.132Z,27.74
2019-04-20T10:49:53.307Z,27.76
2019-04-20T10:52:20.573Z,29.11
2019-04-20T10:54:48.157Z,29.65
2019-04-20T10:57:15.503Z,30.76
2019-04-20T10:59:43.710Z,30.30
2019-04-20T11:02:11.983Z,29.77
2019-04-20T11:04:39.008Z,28.99
2019-04-20T11:07:05.920Z,28.52
2019-04-20T11:09:36.530Z,27.27
2019-04-20T11:12:06.264Z,26.09
2019-04-20T11:14:36.671Z,26.66
2019-04-20T11:17:02.626Z,26.02
2019-04-20T11:19:29.509Z,28.26
2019-04-20T11:21:56.642Z,30.36
2019-04-20T11:24:23.924Z,32.20
2019-04-20T11:26:52.111Z,30.62
2019-04-20T11:29:20.088Z,28.41
2019-04-20T11:31:51.103Z,29.09
2019-04-20T11:34:23.548Z,29.71
2019-04-20T11:36:45.591Z,28.39
2019-04-20T11:39:12.907Z,28.96
2019-04-20T11:41:39.659Z,30.77
2019-04-20T11:44:09.475Z,30.34
2019-04-20T11:46:36.591Z,30.48
2019-04-20T11:49:03.830Z,30.35
2019-04-20T11:51:31.781Z,30.18
2019-04-20T11:54:00.595Z,29.34
2019-04-20T11:56:33.346Z,30.72
2019-04-20T11:58:57.066Z,31.23
2019-04-20T12:01:43.980Z,29.14
2019-04-20T12:04:22.773Z,27.37
2019-04-20T12:06:34.856Z,28.38
2019-04-20T12:09:03.241Z,28.71
2019-04-20T12:11:45.411Z,26.75
2019-04-20T12:14:01.179Z,29.32
2019-04-20T12:16:29.715Z,29.41
2019-04-20T12:18:58.200Z,29.00
2019-04-20T12:21:24.813Z,26.58
2019-04-20T12:23:51.991Z,26.41
2019-04-20T12:26:20.526Z,26.13
2019-04-20T12:28:47.674Z,27.85
2019-04-20T12:31:20.326Z,27.38
2019-04-20T12:33:44.334Z,26.08
2019-04-20T12:36:12.375Z,26.66
2019-04-20T12:38:41.195Z,25.59
2019-04-20T12:41:10.982Z,25.02
2019-04-20T12:43:38.141Z,23.59
2019-04-20T12:46:05.519Z,25.64
2019-04-20T12:48:33.605Z,24.64
2019-04-20T12:51:01.619Z,25.67
2019-04-20T12:53:28.674Z,25.30
2019-04-20T12:55:56.791Z,25.09
2019-04-20T12:58:23.784Z,24.26
2019-04-20T13:00:52.249Z,22.83
2019-04-20T13:03:21.454Z,22.88
2019-04-20T13:05:50.083Z,22.39
2019-04-20T13:08:23.289Z,21.85
2019-04-20T13:10:54.880Z,22.45
2019-04-20T13:13:34.547Z,21.95
2019-04-20T13:16:08.174Z,20.74
2019-04-20T13:19:01.548Z,20.58
2019-04-20T13:21:29.236Z,20.17
2019-04-20T13:23:56.631Z,19.96
2019-04-20T13:26:25.072Z,19.66
2019-04-20T13:28:55.009Z,19.86
2019-04-20T13:31:24.012Z,19.41
2019-04-20T13:33:51.610Z,19.43
2019-04-20T13:36:19.822Z,18.87
2019-04-20T13:38:47.746Z,20.08
2019-04-20T13:41:15.780Z,19.63
2019-04-20T13:43:43.802Z,19.39
2019-04-20T13:46:11.200Z,19.27
2019-04-20T13:48:39.259Z,19.16
2019-04-20T13:54:01.752Z,19.39
2019-04-20T13:56:30.096Z,19.12
2019-04-20T13:59:14.882Z,19.81
2019-04-20T14:02:02.645Z,18.84
2019-04-20T14:04:44.490Z,19.16
2019-04-20T14:07:14.172Z,19.15
2019-04-20T14:09:41.565Z,19.20
2019-04-20T14:12:17.297Z,18.84
2019-04-20T14:14:39.237Z,19.35
2019-04-20T14:17:07.411Z,19.14
2019-04-20T14:19:36.894Z,19.02
2019-04-20T14:22:06.014Z,18.10
2019-04-20T14:24:33.190Z,18.20
2019-04-20T14:27:01.202Z,18.38
2019-04-20T14:29:27.923Z,18.82
2019-04-20T14:31:55.967Z,18.39
2019-04-20T14:34:23.224Z,18.89
2019-04-20T14:36:50.933Z,18.63
2019-04-20T14:39:20.283Z,18.88
2019-04-20T14:41:48.647Z,18.71
2019-04-20T14:44:16.170Z,18.68
2019-04-20T14:46:42.971Z,18.90
2019-04-20T14:49:10.411Z,18.87
2019-04-20T14:51:39.546Z,18.36
2019-04-20T14:54:07.523Z,18.50
2019-04-20T14:56:35.801Z,18.23
2019-04-20T14:59:11.464Z,18.23
2019-04-20T15:01:58.684Z,18.14
2019-04-20T15:04:27.391Z,18.18
2019-04-20T15:06:54.857Z,18.07
2019-04-20T15:09:21.808Z,18.39
2019-04-20T15:11:48.567Z,17.98
2019-04-20T15:14:16.508Z,17.63
2019-04-20T15:16:44.575Z,17.68
2019-04-20T15:19:41.446Z,17.95
2019-04-20T15:22:27.465Z,18.15
2019-04-20T15:24:55.634Z,17.73
2019-04-20T15:27:24.400Z,17.66
2019-04-20T15:29:51.297Z,17.70
2019-04-20T15:32:19.163Z,17.61
2019-04-20T15:34:46.810Z,17.31
2019-04-20T15:37:14.110Z,17.39
2019-04-20T15:39:41.154Z,17.23
2019-04-20T15:42:09.542Z,17.19
2019-04-20T15:44:37.577Z,17.50
2019-04-20T15:47:04.361Z,17.22
2019-04-20T15:49:31.503Z,17.13
2019-04-20T15:51:59.627Z,17.08
2019-04-20T15:54:29.496Z,17.01
2019-04-20T15:57:01.506Z,17.30
2019-04-20T15:59:24.747Z,17.43
2019-04-20T16:01:57.450Z,17.07
2019-04-20T16:04:44.600Z,16.97
2019-04-20T16:07:13.062Z,16.95
2019-04-20T16:09:40.028Z,17.12
2019-04-20T16:12:06.955Z,16.69
2019-04-20T16:14:33.585Z,17.20
2019-04-20T16:17:03.934Z,16.65
2019-04-20T16:19:40.686Z,16.63
2019-04-20T16:21:59.585Z,16.57
2019-04-20T16:24:32.355Z,16.62
2019-04-20T16:27:25.412Z,16.34
2019-04-20T16:29:53.472Z,16.31
2019-04-20T16:32:20.680Z,16.46
2019-04-20T16:34:48.609Z,16.70
2019-04-20T16:37:16.815Z,16.46
2019-04-20T16:39:43.771Z,16.23
2019-04-20T16:42:14.513Z,16.07
2019-04-20T16:44:43.026Z,15.98
2019-04-20T16:47:10.198Z,16.29
2019-04-20T16:49:37.193Z,16.29
2019-04-20T16:52:05.199Z,16.12
2019-04-20T16:54:33.514Z,16.13
2019-04-20T16:57:00.647Z,15.85
2019-04-20T16:59:28.253Z,15.67
2019-04-20T17:01:56.209Z,15.67
2019-04-20T17:04:24.625Z,15.70
2019-04-20T17:07:10.320Z,15.64
2019-04-20T17:09:38.096Z,15.63
2019-04-20T17:12:05.837Z,15.49
2019-04-20T17:14:33.806Z,15.51
2019-04-20T17:17:01.749Z,15.28
2019-04-20T17:19:28.544Z,15.10
2019-04-20T17:21:57.321Z,15.17
2019-04-20T17:24:25.063Z,15.01
2019-04-20T17:27:09.016Z,14.78
2019-04-20T17:29:48.646Z,14.84
2019-04-20T17:32:21.175Z,14.70
2019-04-20T17:35:01.803Z,14.65
2019-04-20T17:37:16.578Z,14.58
2019-04-20T17:40:09.399Z,14.50
2019-04-20T17:42:26.478Z,14.39
2019-04-20T17:44:53.067Z,14.41
2019-04-20T17:47:34.848Z,14.35
2019-04-20T17:49:59.702Z,14.26
2019-04-20T17:52:37.304Z,14.11
2019-04-20T17:54:47.904Z,14.00
2019-04-20T17:57:15.267Z,13.96
2019-04-20T17:59:53.174Z,13.77
2019-04-20T18:02:52.183Z,13.69
2019-04-20T18:05:37.269Z,13.61
2019-04-20T18:08:07.668Z,13.62
2019-04-20T18:10:28.924Z,13.44
2019-04-20T18:12:44.564Z,13.29
2019-04-20T18:15:27.391Z,13.19
2019-04-20T18:18:18.740Z,13.03
2019-04-20T18:20:45.494Z,12.94
2019-04-20T18:23:12.914Z,12.78
2019-04-20T18:26:06.438Z,12.60
2019-04-20T18:28:20.849Z,12.57
2019-04-20T18:30:50.492Z,12.43
2019-04-20T18:33:13.573Z,12.25
2019-04-20T18:35:45.583Z,12.26
2019-04-20T18:38:14.457Z,12.14
2019-04-20T18:40:48.362Z,12.10
2019-04-20T18:43:14.505Z,11.89
2019-04-20T18:45:58.489Z,11.86
2019-04-20T18:48:24.625Z,11.78
2019-04-20T18:50:39.803Z,11.64
2019-04-20T18:53:01.687Z,11.67
2019-04-20T18:55:38.816Z,11.57
2019-04-20T18:57:57.350Z,11.23
2019-04-20T19:00:30.289Z,11.17
2019-04-20T19:02:56.020Z,11.15
2019-04-20T19:05:24.005Z,11.09
2019-04-20T19:07:59.233Z,11.07
2019-04-20T19:10:27.552Z,10.90
2019-04-20T19:12:59.534Z,10.88
2019-04-20T19:15:55.971Z,10.96
2019-04-20T19:18:50.463Z,10.82
2019-04-20T19:21:03.967Z,10.79
2019-04-20T19:23:33.790Z,10.62
2019-04-20T19:26:06.134Z,10.52
2019-04-20T19:28:37.793Z,10.60
2019-04-20T19:31:12.602Z,10.44
2019-04-20T19:33:37.678Z,10.32
2019-04-20T19:36:10.573Z,10.18
2019-04-20T19:38:30.149Z,10.16
2019-04-20T19:41:01.698Z,10.15
2019-04-20T19:43:30.772Z,9.89
2019-04-20T19:46:31.208Z,9.87
2019-04-20T19:48:34.382Z,9.90
2019-04-20T19:51:09.800Z,9.86
2019-04-20T19:53:45.172Z,9.76
2019-04-20T19:56:03.481Z,9.66
2019-04-20T19:58:32.733Z,9.53
2019-04-20T20:00:53.441Z,9.35
2019-04-20T20:03:19.935Z,9.30
2019-04-20T20:05:51.848Z,9.26
2019-04-20T20:08:23.655Z,9.17
2019-04-20T20:10:48.452Z,9.03
2019-04-20T20:13:36.174Z,9.03
2019-04-20T20:16:01.934Z,9.12
2019-04-20T20:18:46.578Z,9.12
2019-04-20T20:21:11.079Z,8.93
2019-04-20T20:23:29.988Z,9.03
2019-04-20T20:26:05.412Z,9.11
2019-04-20T20:28:43.496Z,8.98
2019-04-20T20:31:12.592Z,8.83
2019-04-20T20:33:43.815Z,8.78
2019-04-20T20:36:06.610Z,8.66
2019-04-20T20:38:36.998Z,8.69
2019-04-20T20:41:08.749Z,8.57
2019-04-20T20:43:40.999Z,8.36
2019-04-20T20:46:05.016Z,8.21
2019-04-20T20:48:38.768Z,8.19
2019-04-20T20:51:12.211Z,8.10
2019-04-20T20:53:38.680Z,8.10
2019-04-20T20:56:06.106Z,8.16
2019-04-20T20:58:38.682Z,8.16
2019-04-20T21:00:57.566Z,8.02
2019-04-20T21:03:28.279Z,7.87
2019-04-20T21:05:49.689Z,7.87
2019-04-20T21:08:17.473Z,7.91
2019-04-20T21:10:45.805Z,7.89
2019-04-20T21:13:14.274Z,7.63
2019-04-20T21:16:01.322Z,7.68
2019-04-20T21:18:43.641Z,7.49
2019-04-20T21:21:15.051Z,7.49
2019-04-20T21:23:40.436Z,7.55
2019-04-20T21:26:22.893Z,7.69
2019-04-20T21:28:39.870Z,7.62
2019-04-20T21:31:16.235Z,7.47
2019-04-20T21:33:40.098Z,7.20
2019-04-20T21:36:07.081Z,7.20
2019-04-20T21:38:39.316Z,7.15
2019-04-20T21:41:09.437Z,7.06
2019-04-20T21:43:38.736Z,7.19
2019-04-20T21:46:05.445Z,7.30
2019-04-20T21:48:43.925Z,7.28
2019-04-20T21:51:15.187Z,7.28
2019-04-20T21:53:32.978Z,7.23
2019-04-20T21:55:57.525Z,7.24
2019-04-20T21:58:35.196Z,7.24
2019-04-20T22:01:08.065Z,7.14
2019-04-20T22:03:26.845Z,7.50
2019-04-20T22:06:02.474Z,7.41
2019-04-20T22:08:30.468Z,7.41
2019-04-20T22:10:59.807Z,7.19
2019-04-20T22:13:33.550Z,7.08
2019-04-20T22:16:04.743Z,7.22
2019-04-20T22:18:27.058Z,7.22
2019-04-20T22:21:05.999Z,7.38
2019-04-20T22:23:46.628Z,7.51
2019-04-20T22:26:03.097Z,7.51
2019-04-20T22:28:22.293Z,7.41
2019-04-20T22:30:50.393Z,7.25
2019-04-20T22:33:23.578Z,7.25
2019-04-20T22:35:54.871Z,7.18
2019-04-20T22:38:26.750Z,7.39
2019-04-20T22:40:56.627Z,7.23
2019-04-20T22:43:27.587Z,7.32
2019-04-20T22:45:55.306Z,7.25
2019-04-20T22:48:22.931Z,7.09
2019-04-20T22:51:10.315Z,7.12
2019-04-20T22:53:36.418Z,7.05
2019-04-20T22:56:16.732Z,7.02
2019-04-20T22:58:34.774Z,6.94
2019-04-20T23:00:54.309Z,6.85
2019-04-20T23:03:18.706Z,6.93
2019-04-20T23:05:46.859Z,6.87
2019-04-20T23:08:14.887Z,6.77
2019-04-20T23:10:45.001Z,6.75
2019-04-20T23:13:11.480Z,6.75
2019-04-20T23:15:43.312Z,6.71
2019-04-20T23:18:08.670Z,6.73
2019-04-20T23:20:39.433Z,6.73
2019-04-20T23:23:05.380Z,6.96
2019-04-20T23:25:33.391Z,6.90
2019-04-20T23:28:06.466Z,6.87
2019-04-20T23:30:33.569Z,6.78
2019-04-20T23:32:59.814Z,6.74
2019-04-20T23:35:28.072Z,6.71
2019-04-20T23:38:01.607Z,6.75
2019-04-20T23:40:23.659Z,6.55
2019-04-20T23:42:57.876Z,6.75
2019-04-20T23:45:52.664Z,6.66
2019-04-20T23:48:28.471Z,6.75
2019-04-20T23:51:11.372Z,6.79
2019-04-20T23:53:37.647Z,6.50
2019-04-20T23:55:52.095Z,6.58
2019-04-20T23:58:21.151Z,6.59
